createdAt,value
2023-03-13T00:01:33.832Z,74.34
2023-03-13T00:04:00.685Z,74.21
2023-03-13T00:06:30.414Z,74.81
2023-03-13T00:08:56.802Z,74.21
2023-03-13T00:11:23.583Z,74.67
2023-03-13T00:13:54.119Z,74.99
2023-03-13T00:16:20.468Z,74.84
2023-03-13T00:18:50.090Z,75.41
2023-03-13T00:21:18.093Z,74.84
2023-03-13T00:23:44.681Z,75.58
2023-03-13T00:26:13.624Z,75.06
2023-03-13T00:28:41.779Z,75.06
2023-03-13T00:31:12.450Z,75.47
2023-03-13T00:33:41.765Z,75.09
2023-03-13T00:36:14.078Z,75.14
2023-03-13T00:38:41.333Z,74.97
2023-03-13T00:41:16.074Z,74.89
2023-03-13T00:43:44.468Z,74.50
2023-03-13T00:46:12.236Z,74.97
2023-03-13T00:48:38.721Z,74.75
2023-03-13T00:51:05.719Z,75.30
2023-03-13T00:53:32.036Z,74.79
2023-03-13T00:56:01.320Z,74.93
2023-03-13T00:58:30.408Z,74.62
2023-03-13T01:00:57.061Z,75.10
2023-03-13T01:03:25.333Z,74.69
2023-03-13T01:05:56.453Z,74.80
2023-03-13T01:08:22.739Z,74.99
2023-03-13T01:10:49.140Z,74.33
2023-03-13T01:13:15.421Z,74.49
2023-03-13T01:15:41.756Z,74.77
2023-03-13T01:18:08.047Z,74.50
2023-03-13T01:20:34.355Z,74.47
2023-03-13T01:23:00.642Z,74.79
2023-03-13T01:25:26.901Z,74.75
2023-03-13T01:27:53.219Z,74.51
2023-03-13T01:30:19.517Z,74.44
2023-03-13T01:35:27.371Z,74.03
2023-03-13T01:37:53.734Z,74.14
2023-03-13T01:40:20.030Z,74.65
2023-03-13T01:42:51.261Z,74.41
2023-03-13T01:45:51.621Z,74.68
2023-03-13T01:48:18.494Z,74.59
2023-03-13T01:50:44.787Z,74.67
2023-03-13T01:53:11.408Z,74.51
2023-03-13T01:55:38.249Z,74.81
2023-03-13T01:58:04.829Z,74.67
2023-03-13T02:00:35.310Z,74.84
2023-03-13T02:03:10.929Z,74.85
2023-03-13T02:05:38.716Z,75.20
2023-03-13T02:08:10.204Z,75.25
2023-03-13T02:10:42.487Z,74.72
2023-03-13T02:13:08.900Z,74.77
2023-03-13T02:15:35.263Z,74.97
2023-03-13T02:18:01.779Z,74.87
2023-03-13T02:20:28.145Z,74.72
2023-03-13T02:23:16.101Z,74.96
2023-03-13T02:25:48.935Z,74.76
2023-03-13T02:28:25.839Z,74.76
2023-03-13T02:30:55.169Z,74.82
2023-03-13T02:33:26.096Z,74.68
2023-03-13T02:35:53.500Z,74.60
2023-03-13T02:38:26.944Z,74.68
2023-03-13T02:40:55.348Z,74.81
2023-03-13T02:43:36.564Z,74.90
2023-03-13T02:46:11.679Z,74.88
2023-03-13T02:48:41.664Z,75.16
2023-03-13T02:51:16.819Z,74.68
2023-03-13T02:53:43.424Z,74.57
2023-03-13T02:56:12.386Z,74.99
2023-03-13T02:58:49.281Z,75.61
2023-03-13T03:01:16.421Z,75.78
2023-03-13T03:03:42.921Z,75.41
2023-03-13T03:06:09.246Z,76.09
2023-03-13T03:08:36.300Z,75.55
2023-03-13T03:11:05.280Z,76.12
2023-03-13T03:13:31.663Z,75.95
2023-03-13T03:15:57.945Z,75.38
2023-03-13T03:18:24.721Z,75.91
2023-03-13T03:20:51.143Z,75.56
2023-03-13T03:23:17.429Z,76.22
2023-03-13T03:25:43.771Z,76.45
2023-03-13T03:28:10.196Z,76.22
2023-03-13T03:30:36.487Z,76.20
2023-03-13T03:33:03.586Z,76.59
2023-03-13T03:35:30.180Z,76.50
2023-03-13T03:37:56.520Z,77.42
2023-03-13T03:40:22.813Z,77.12
2023-03-13T03:42:49.114Z,77.83
2023-03-13T03:45:15.455Z,76.99
2023-03-13T03:47:41.722Z,76.85
2023-03-13T03:50:08.818Z,77.85
2023-03-13T03:52:35.201Z,76.89
2023-03-13T03:55:01.500Z,77.00
2023-03-13T03:57:27.811Z,77.46
2023-03-13T03:59:54.226Z,77.59
2023-03-13T04:02:20.582Z,78.12
2023-03-13T04:04:46.965Z,77.69
2023-03-13T04:07:13.282Z,77.19
2023-03-13T04:09:39.581Z,77.53
2023-03-13T04:12:06.217Z,77.80
2023-03-13T04:14:32.535Z,77.54
2023-03-13T04:16:58.937Z,77.70
2023-03-13T04:19:25.406Z,77.77
2023-03-13T04:21:51.807Z,77.58
2023-03-13T04:24:18.237Z,77.35
2023-03-13T04:26:44.559Z,76.90
2023-03-13T04:29:10.966Z,77.44
2023-03-13T04:31:37.267Z,77.01
2023-03-13T04:34:03.561Z,76.67
2023-03-13T04:36:29.977Z,77.01
2023-03-13T04:38:56.260Z,76.62
2023-03-13T04:41:22.673Z,76.57
2023-03-13T04:43:48.961Z,76.85
2023-03-13T04:46:15.447Z,76.23
2023-03-13T04:48:41.792Z,77.51
2023-03-13T04:51:08.058Z,76.99
2023-03-13T04:53:34.451Z,76.99
2023-03-13T04:56:00.819Z,76.80
2023-03-13T04:58:27.109Z,77.22
2023-03-13T05:00:53.950Z,76.39
2023-03-13T05:03:20.449Z,76.97
2023-03-13T05:05:46.753Z,76.79
2023-03-13T05:08:13.043Z,76.19
2023-03-13T05:10:39.379Z,76.72
2023-03-13T05:13:05.727Z,76.67
2023-03-13T05:15:32.193Z,77.00
2023-03-13T05:17:58.524Z,77.17
2023-03-13T05:20:24.804Z,76.77
2023-03-13T05:22:51.146Z,76.72
2023-03-13T05:25:17.536Z,77.12
2023-03-13T05:27:43.819Z,77.48
2023-03-13T05:30:10.841Z,77.26
2023-03-13T05:32:37.202Z,76.52
2023-03-13T05:35:03.792Z,76.78
2023-03-13T05:37:30.176Z,76.96
2023-03-13T05:39:56.572Z,76.96
2023-03-13T05:42:22.867Z,77.14
2023-03-13T05:44:49.148Z,76.78
2023-03-13T05:47:15.531Z,76.38
2023-03-13T05:49:41.824Z,76.35
2023-03-13T05:52:08.180Z,75.97
2023-03-13T05:54:34.556Z,76.25
2023-03-13T05:57:00.971Z,76.77
2023-03-13T05:59:27.257Z,76.64
2023-03-13T06:01:53.551Z,77.14
2023-03-13T06:04:20.116Z,77.22
2023-03-13T06:06:46.668Z,77.18
2023-03-13T06:09:12.925Z,76.78
2023-03-13T06:11:39.273Z,76.68
2023-03-13T06:14:05.562Z,76.66
2023-03-13T06:16:32.066Z,77.23
2023-03-13T06:18:58.603Z,77.23
2023-03-13T06:21:25.214Z,77.39
2023-03-13T06:23:51.559Z,77.96
2023-03-13T06:26:17.860Z,77.34
2023-03-13T06:28:44.149Z,77.14
2023-03-13T06:31:10.681Z,77.47
2023-03-13T06:33:37.024Z,77.26
2023-03-13T06:36:03.870Z,77.47
2023-03-13T06:38:30.605Z,77.59
2023-03-13T06:40:56.990Z,77.64
2023-03-13T06:43:23.817Z,77.03
2023-03-13T06:45:50.584Z,76.68
2023-03-13T06:48:17.238Z,77.44
2023-03-13T06:50:43.631Z,77.26
2023-03-13T06:53:16.154Z,77.44
2023-03-13T06:55:43.018Z,76.71
2023-03-13T06:58:14.052Z,77.20
2023-03-13T07:00:48.032Z,76.73
2023-03-13T07:03:14.402Z,76.84
2023-03-13T07:05:40.692Z,75.95
2023-03-13T07:08:07.018Z,76.49
2023-03-13T07:10:33.304Z,76.45
2023-03-13T07:12:59.592Z,76.42
2023-03-13T07:15:25.989Z,76.15
2023-03-13T07:17:52.321Z,76.36
2023-03-13T07:20:18.809Z,76.17
2023-03-13T07:22:51.306Z,75.91
2023-03-13T07:25:17.617Z,76.34
2023-03-13T07:27:43.923Z,75.78
2023-03-13T07:30:11.034Z,75.83
2023-03-13T07:32:37.406Z,74.92
2023-03-13T07:37:45.305Z,74.88
2023-03-13T07:40:11.844Z,75.01
2023-03-13T07:42:41.670Z,74.13
2023-03-13T07:45:09.250Z,73.19
2023-03-13T07:47:35.950Z,72.75
2023-03-13T07:50:02.729Z,72.28
2023-03-13T07:52:29.763Z,72.09
2023-03-13T07:54:56.079Z,71.78
2023-03-13T07:57:22.408Z,71.69
2023-03-13T07:59:48.696Z,70.51
2023-03-13T08:02:15.118Z,71.76
2023-03-13T08:04:41.533Z,70.80
2023-03-13T08:07:11.598Z,72.01
2023-03-13T08:09:38.336Z,70.89
2023-03-13T08:12:05.286Z,71.03
2023-03-13T08:14:31.677Z,70.20
2023-03-13T08:16:58.031Z,70.20
2023-03-13T08:19:24.422Z,69.43
2023-03-13T08:21:50.715Z,69.07
2023-03-13T08:24:17.003Z,69.29
2023-03-13T08:26:43.346Z,69.03
2023-03-13T08:29:12.401Z,69.44
2023-03-13T08:31:43.914Z,68.46
2023-03-13T08:34:12.223Z,68.45
2023-03-13T08:36:38.790Z,68.68
2023-03-13T08:39:09.515Z,68.89
2023-03-13T08:41:36.687Z,68.60
2023-03-13T08:44:04.293Z,69.05
2023-03-13T08:46:32.770Z,68.32
2023-03-13T08:48:59.241Z,68.46
2023-03-13T08:51:30.124Z,68.40
2023-03-13T08:53:56.687Z,68.47
2023-03-13T08:56:25.706Z,68.59
2023-03-13T08:58:53.856Z,68.24
2023-03-13T09:01:22.097Z,68.21
2023-03-13T09:03:48.609Z,68.47
2023-03-13T09:06:15.073Z,68.33
2023-03-13T09:08:42.307Z,68.37
2023-03-13T09:11:20.476Z,67.48
2023-03-13T09:13:49.202Z,67.23
2023-03-13T09:16:24.265Z,67.19
2023-03-13T09:18:52.183Z,66.44
2023-03-13T09:21:21.802Z,66.68
2023-03-13T09:23:48.710Z,65.77
2023-03-13T09:26:16.685Z,65.98
2023-03-13T09:28:43.826Z,65.79
2023-03-13T09:31:23.366Z,64.59
2023-03-13T09:33:50.776Z,64.89
2023-03-13T09:36:21.379Z,64.35
2023-03-13T09:38:48.256Z,63.93
2023-03-13T09:41:17.543Z,63.48
2023-03-13T09:44:08.188Z,62.99
2023-03-13T09:46:40.956Z,63.11
2023-03-13T09:49:26.404Z,62.66
2023-03-13T09:52:05.723Z,63.08
2023-03-13T09:54:40.756Z,62.06
2023-03-13T09:57:18.055Z,61.41
2023-03-13T09:59:51.425Z,62.55
2023-03-13T10:02:26.864Z,61.25
2023-03-13T10:05:00.114Z,60.62
2023-03-13T10:07:26.576Z,60.62
2023-03-13T10:09:52.871Z,60.43
2023-03-13T10:12:22.963Z,60.59
2023-03-13T10:15:12.309Z,61.70
2023-03-13T10:17:39.721Z,61.73
2023-03-13T10:20:22.141Z,61.96
2023-03-13T10:22:53.207Z,62.33
2023-03-13T10:25:38.381Z,62.89
2023-03-13T10:28:06.275Z,62.98
2023-03-13T10:30:35.559Z,63.29
2023-03-13T10:33:07.539Z,63.93
2023-03-13T10:35:40.284Z,63.61
2023-03-13T10:38:11.627Z,63.38
2023-03-13T10:40:38.261Z,63.17
2023-03-13T10:43:12.680Z,63.27
2023-03-13T10:45:39.145Z,63.69
2023-03-13T10:48:18.847Z,63.84
2023-03-13T10:50:48.126Z,63.87
2023-03-13T10:53:36.610Z,63.80
2023-03-13T10:56:14.187Z,63.55
2023-03-13T10:58:49.327Z,63.68
2023-03-13T11:01:17.636Z,64.00
2023-03-13T11:03:45.778Z,64.14
2023-03-13T11:06:33.570Z,63.23
2023-03-13T11:09:11.553Z,63.69
2023-03-13T11:11:45.179Z,63.00
2023-03-13T11:14:20.022Z,63.21
2023-03-13T11:16:49.197Z,63.36
2023-03-13T11:19:24.656Z,62.73
2023-03-13T11:22:03.429Z,62.74
2023-03-13T11:24:42.369Z,62.53
2023-03-13T11:27:32.837Z,62.66
2023-03-13T11:30:30.209Z,62.24
2023-03-13T11:33:04.809Z,62.24
2023-03-13T11:35:40.411Z,61.69
2023-03-13T11:38:33.607Z,58.59
2023-03-13T11:41:21.136Z,59.50
2023-03-13T11:44:09.278Z,57.58
2023-03-13T11:46:44.486Z,56.58
2023-03-13T11:49:44.008Z,56.43
2023-03-13T11:52:31.755Z,57.32
2023-03-13T11:55:22.921Z,57.41
2023-03-13T11:58:10.811Z,57.57
2023-03-13T12:01:01.593Z,58.52
2023-03-13T12:03:59.834Z,58.15
2023-03-13T12:06:40.496Z,58.95
2023-03-13T12:09:14.984Z,58.83
2023-03-13T12:12:10.515Z,58.41
2023-03-13T12:14:45.385Z,59.43
2023-03-13T12:17:21.605Z,58.59
2023-03-13T12:19:54.796Z,58.58
2023-03-13T12:22:25.129Z,58.14
2023-03-13T12:24:58.142Z,57.52
2023-03-13T12:27:31.137Z,57.33
2023-03-13T12:30:05.151Z,57.06
2023-03-13T12:32:39.833Z,57.18
2023-03-13T12:35:11.299Z,57.07
2023-03-13T12:38:13.608Z,55.81
2023-03-13T12:41:08.236Z,55.18
2023-03-13T12:43:39.348Z,56.39
2023-03-13T12:46:33.303Z,55.35
2023-03-13T12:49:21.431Z,55.43
2023-03-13T12:52:09.222Z,55.39
2023-03-13T12:55:13.064Z,56.04
2023-03-13T12:58:06.111Z,54.56
2023-03-13T13:00:36.803Z,55.34
2023-03-13T13:03:35.549Z,54.09
2023-03-13T13:06:14.997Z,55.00
2023-03-13T13:08:54.815Z,53.93
2023-03-13T13:11:33.367Z,53.41
2023-03-13T13:14:01.371Z,53.67
2023-03-13T13:16:31.763Z,52.68
2023-03-13T13:19:24.149Z,51.26
2023-03-13T13:22:27.933Z,50.83
2023-03-13T13:24:59.400Z,50.97
2023-03-13T13:27:46.558Z,50.29
2023-03-13T13:30:18.769Z,50.80
2023-03-13T13:32:46.646Z,51.25
2023-03-13T13:35:12.963Z,51.04
2023-03-13T13:37:40.497Z,50.45
2023-03-13T13:40:16.039Z,50.81
2023-03-13T13:42:48.286Z,51.17
2023-03-13T13:45:14.538Z,50.63
2023-03-13T13:47:43.909Z,50.97
2023-03-13T13:50:20.836Z,50.97
2023-03-13T13:52:48.813Z,51.18
2023-03-13T13:55:40.694Z,50.77
2023-03-13T13:58:24.340Z,50.87
2023-03-13T14:00:54.309Z,51.56
2023-03-13T14:03:29.311Z,50.67
2023-03-13T14:06:01.560Z,50.35
2023-03-13T14:08:31.257Z,50.93
2023-03-13T14:11:14.954Z,50.16
2023-03-13T14:13:41.433Z,50.44
2023-03-13T14:16:25.144Z,50.21
2023-03-13T14:18:52.057Z,50.49
2023-03-13T14:21:25.442Z,50.57
2023-03-13T14:23:52.042Z,50.85
2023-03-13T14:26:27.192Z,50.20
2023-03-13T14:28:56.704Z,49.63
2023-03-13T14:31:37.586Z,49.55
2023-03-13T14:34:06.779Z,50.13
2023-03-13T14:36:46.627Z,49.98
2023-03-13T14:39:22.058Z,50.56
2023-03-13T14:41:49.770Z,50.53
2023-03-13T14:44:28.847Z,49.94
2023-03-13T14:46:59.113Z,50.37
2023-03-13T14:49:28.107Z,49.66
2023-03-13T14:52:00.526Z,49.45
2023-03-13T14:54:28.452Z,49.43
2023-03-13T14:57:10.108Z,49.70
2023-03-13T14:59:36.598Z,50.67
2023-03-13T15:02:14.099Z,50.10
2023-03-13T15:04:51.523Z,49.67
2023-03-13T15:07:18.662Z,50.73
2023-03-13T15:09:45.877Z,49.92
2023-03-13T15:12:18.087Z,50.80
2023-03-13T15:14:48.661Z,51.01
2023-03-13T15:17:25.063Z,51.71
2023-03-13T15:19:54.867Z,52.24
2023-03-13T15:22:32.157Z,51.85
2023-03-13T15:25:07.636Z,52.42
2023-03-13T15:27:34.938Z,52.34
2023-03-13T15:30:01.269Z,52.10
2023-03-13T15:32:31.356Z,52.15
2023-03-13T15:34:57.867Z,52.44
2023-03-13T15:37:26.086Z,52.02
2023-03-13T15:39:55.023Z,52.18
2023-03-13T15:42:22.204Z,52.26
2023-03-13T15:44:48.429Z,51.96
2023-03-13T15:47:18.908Z,52.37
2023-03-13T15:49:45.263Z,52.13
2023-03-13T15:52:18.267Z,51.29
2023-03-13T15:54:48.845Z,51.57
2023-03-13T15:57:18.299Z,51.81
2023-03-13T15:59:44.933Z,51.41
2023-03-13T16:02:16.410Z,51.39
2023-03-13T16:04:44.087Z,51.86
2023-03-13T16:07:16.112Z,51.44
2023-03-13T16:09:43.637Z,52.08
2023-03-13T16:12:11.465Z,52.22
2023-03-13T16:14:39.023Z,52.01
2023-03-13T16:17:17.272Z,51.99
2023-03-13T16:19:45.146Z,52.76
2023-03-13T16:22:11.835Z,52.94
2023-03-13T16:24:38.646Z,53.05
2023-03-13T16:27:18.833Z,53.03
2023-03-13T16:29:45.887Z,53.58
2023-03-13T16:32:17.078Z,53.64
2023-03-13T16:34:43.411Z,53.74
2023-03-13T16:37:15.340Z,54.09
2023-03-13T16:39:43.213Z,54.37
2023-03-13T16:42:09.907Z,54.42
2023-03-13T16:44:36.577Z,54.81
2023-03-13T16:47:06.765Z,55.32
2023-03-13T16:49:33.198Z,55.12
2023-03-13T16:51:59.473Z,55.50
2023-03-13T16:54:25.819Z,55.80
2023-03-13T16:56:52.150Z,55.42
2023-03-13T16:59:18.817Z,55.72
2023-03-13T17:01:45.708Z,56.63
2023-03-13T17:04:12.042Z,56.46
2023-03-13T17:06:40.377Z,56.80
2023-03-13T17:09:11.980Z,57.56
2023-03-13T17:11:38.313Z,56.99
2023-03-13T17:14:05.712Z,57.47
2023-03-13T17:16:34.767Z,57.78
2023-03-13T17:19:02.223Z,59.08
2023-03-13T17:21:30.789Z,58.35
2023-03-13T17:23:57.750Z,58.80
2023-03-13T17:26:28.580Z,58.85
2023-03-13T17:28:57.202Z,60.12
2023-03-13T17:31:25.448Z,59.74
2023-03-13T17:33:51.847Z,60.81
2023-03-13T17:36:23.653Z,61.05
2023-03-13T17:38:52.155Z,60.87
2023-03-13T17:41:21.103Z,60.81
2023-03-13T17:43:47.655Z,60.98
2023-03-13T17:46:17.161Z,61.16
2023-03-13T17:48:43.597Z,61.11
2023-03-13T17:51:24.694Z,62.01
2023-03-13T17:53:52.223Z,61.63
2023-03-13T17:56:27.485Z,61.76
2023-03-13T17:58:55.913Z,61.90
2023-03-13T18:01:22.523Z,62.47
2023-03-13T18:03:49.280Z,62.72
2023-03-13T18:06:17.445Z,62.37
2023-03-13T18:08:43.751Z,61.98
2023-03-13T18:11:11.164Z,62.45
2023-03-13T18:13:39.110Z,62.78
2023-03-13T18:16:17.433Z,63.47
2023-03-13T18:18:43.981Z,64.03
2023-03-13T18:21:10.273Z,63.33
2023-03-13T18:23:36.683Z,64.09
2023-03-13T18:26:19.159Z,64.14
2023-03-13T18:28:45.567Z,63.78
2023-03-13T18:31:12.039Z,64.67
2023-03-13T18:33:38.421Z,63.85
2023-03-13T18:36:15.410Z,64.14
2023-03-13T18:38:41.729Z,64.32
2023-03-13T18:41:09.998Z,64.26
2023-03-13T18:43:36.414Z,64.22
2023-03-13T18:46:02.867Z,64.47
2023-03-13T18:48:29.440Z,64.91
2023-03-13T18:50:55.820Z,64.68
2023-03-13T18:53:22.104Z,64.46
2023-03-13T18:55:48.473Z,64.33
2023-03-13T18:58:14.823Z,64.34
2023-03-13T19:00:41.187Z,64.59
2023-03-13T19:03:07.596Z,64.67
2023-03-13T19:05:33.914Z,65.03
2023-03-13T19:08:00.223Z,64.91
2023-03-13T19:10:30.057Z,65.43
2023-03-13T19:12:57.144Z,64.89
2023-03-13T19:15:26.263Z,64.98
2023-03-13T19:17:53.276Z,65.65
2023-03-13T19:20:21.652Z,65.30
2023-03-13T19:22:48.285Z,64.63
2023-03-13T19:25:15.313Z,63.78
2023-03-13T19:27:41.944Z,63.15
2023-03-13T19:30:18.584Z,63.01
2023-03-13T19:32:45.100Z,63.19
2023-03-13T19:35:11.517Z,62.71
2023-03-13T19:37:38.675Z,62.99
2023-03-13T19:40:08.170Z,64.23
2023-03-13T19:42:34.584Z,64.68
2023-03-13T19:45:01.084Z,65.69
2023-03-13T19:47:27.374Z,66.23
2023-03-13T19:49:53.860Z,66.47
2023-03-13T19:52:20.156Z,69.06
2023-03-13T19:54:46.448Z,70.85
2023-03-13T19:57:12.808Z,71.57
2023-03-13T19:59:39.123Z,72.78
2023-03-13T20:02:06.546Z,73.56
2023-03-13T20:04:32.942Z,74.17
2023-03-13T20:06:59.351Z,73.58
2023-03-13T20:09:25.731Z,73.46
2023-03-13T20:11:52.100Z,72.91
2023-03-13T20:14:18.575Z,73.25
2023-03-13T20:16:44.871Z,73.86
2023-03-13T20:19:11.185Z,74.70
2023-03-13T20:21:38.165Z,75.87
2023-03-13T20:24:04.929Z,79.49
2023-03-13T20:26:31.358Z,80.39
2023-03-13T20:28:58.388Z,80.31
2023-03-13T20:31:29.991Z,80.32
2023-03-13T20:33:57.618Z,81.19
2023-03-13T20:36:24.714Z,81.84
2023-03-13T20:38:51.655Z,81.16
2023-03-13T20:41:18.175Z,84.89
2023-03-13T20:43:44.505Z,86.40
2023-03-13T20:46:10.900Z,86.42
2023-03-13T20:48:38.836Z,86.03
2023-03-13T20:51:07.019Z,86.78
2023-03-13T20:53:36.025Z,86.48
2023-03-13T20:56:04.016Z,83.57
2023-03-13T20:58:31.705Z,82.52
2023-03-13T21:00:59.668Z,82.34
2023-03-13T21:03:26.711Z,82.77
2023-03-13T21:05:53.173Z,84.62
2023-03-13T21:08:19.549Z,85.79
2023-03-13T21:10:45.939Z,84.47
2023-03-13T21:13:12.243Z,84.27
2023-03-13T21:15:38.741Z,84.95
2023-03-13T21:18:05.129Z,83.18
2023-03-13T21:20:31.558Z,85.18
2023-03-13T21:22:57.909Z,84.12
2023-03-13T21:25:24.714Z,82.42
2023-03-13T21:27:51.117Z,84.87
2023-03-13T21:30:20.115Z,82.22
2023-03-13T21:32:46.935Z,84.81
2023-03-13T21:35:13.988Z,83.74
2023-03-13T21:37:40.349Z,83.76
2023-03-13T21:40:07.679Z,83.28
2023-03-13T21:42:34.453Z,82.97
2023-03-13T21:45:00.757Z,81.82
2023-03-13T21:47:27.072Z,82.36
2023-03-13T21:49:54.749Z,82.51
2023-03-13T21:52:22.439Z,81.47
2023-03-13T21:54:49.052Z,81.68
2023-03-13T21:57:15.362Z,80.20
2023-03-13T21:59:42.808Z,81.17
2023-03-13T22:02:12.484Z,82.04
2023-03-13T22:04:39.486Z,80.29
2023-03-13T22:07:06.442Z,80.17
2023-03-13T22:09:33.184Z,79.49
2023-03-13T22:11:59.492Z,79.08
2023-03-13T22:14:25.771Z,79.44
2023-03-13T22:16:52.068Z,81.00
2023-03-13T22:19:18.356Z,81.08
2023-03-13T22:21:44.707Z,80.44
2023-03-13T22:24:11.525Z,80.84
2023-03-13T22:26:38.530Z,81.69
2023-03-13T22:29:05.435Z,80.32
2023-03-13T22:31:31.797Z,81.12
2023-03-13T22:33:58.231Z,81.16
2023-03-13T22:36:24.616Z,80.73
2023-03-13T22:38:50.904Z,81.93
2023-03-13T22:41:17.786Z,80.92
2023-03-13T22:43:44.366Z,81.96
2023-03-13T22:46:11.504Z,81.61
2023-03-13T22:48:38.402Z,81.28
2023-03-13T22:51:09.196Z,81.74
2023-03-13T22:53:37.813Z,81.64
2023-03-13T22:56:04.407Z,83.44
2023-03-13T22:58:30.708Z,84.69
2023-03-13T23:00:57.125Z,84.74
2023-03-13T23:03:23.513Z,84.76
2023-03-13T23:05:49.890Z,85.77
2023-03-13T23:08:16.561Z,85.58
2023-03-13T23:10:44.765Z,85.52
2023-03-13T23:13:11.665Z,85.61
2023-03-13T23:15:55.280Z,85.58
2023-03-13T23:18:23.229Z,85.83
2023-03-13T23:20:49.594Z,84.94
2023-03-13T23:23:15.932Z,86.36
2023-03-13T23:25:42.264Z,86.62
2023-03-13T23:28:08.802Z,86.04
2023-03-13T23:30:35.069Z,85.10
2023-03-13T23:33:01.344Z,85.02
2023-03-13T23:35:27.769Z,85.30
2023-03-13T23:37:54.094Z,85.49
2023-03-13T23:40:22.558Z,85.78
2023-03-13T23:42:50.475Z,85.64
2023-03-13T23:45:17.929Z,86.43
2023-03-13T23:47:44.591Z,86.04
2023-03-13T23:50:12.492Z,86.00
2023-03-13T23:52:39.442Z,85.81
2023-03-13T23:55:06.483Z,85.43
2023-03-13T23:57:33.193Z,85.87
2023-03-13T23:59:59.601Z,84.90
